King Salmon, AK

8:28 AM AKDT on September 01, 2015 (GMT -0800)
King Salmon | | Change Station
CLOSE
Current Station
Airport
Location: King Salmon,
Elevation: 46 ft
Nearby Weather Stations

Elev 46 ft 58.68 °N, 156.66 °W | Updated 34 minutes ago

Clear
Clear
30 °F
Feels Like 25 °F
N
5
Wind Variable Wind from North

Today
High -- | Low -- °F
--% Chance of Precip.
Yesterday
High -- | Low -- °F
Precip. -- in
7:24 AM 9:26 PM
Waning Gibbous, 88% visible
Pressure 30.13 in
Visibility 10.0 miles
Clouds Clear
Windchill 25 °F
Dew Point 26 °F
Humidity 85%
Rainfall 0.00 in
Snow Depth Not available.
UV 0 out of 12
Pollen Not available.
Air Quality Not available.
Flu Activity Not available.
METAR PAKN 011554Z 01004KT 10SM CLR M01/M03 A3013 RMK AO2 SLP203 T10111033
Pressure 30.13 in
Visibility 10.0 miles
Clouds Clear
Windchill 25 °F
Dew Point 26 °F
Humidity 85%
Rainfall 0.00 in
Snow Depth Not available.
UV 0 out of 12
Pollen Not available.
Air Quality Not available.
Flu Activity Not available.
METAR PAKN 011554Z 01004KT 10SM CLR M01/M03 A3013 RMK AO2 SLP203 T10111033

10-Day Weather Forecast

×

Almanac

Astronomy

Sep. 01, 2015 Rise Set
Actual Time
Civil Twilight
Nautical Twilight
Astronomical Twilight
Moon
Length of Visible Light
Length of Day
Tomorrow will be .
, % of the Moon is Illuminated

Today's Extremes

State Highs State Lows

Community

WunderPhotos

Upload Photos

1,851,544 photos uploaded!

WunderBlogs® & News

Nearby

Air Quality

  Air Quality AQ Index Pollutant
Not available.

Snow Depth

Station Depth Elevation

Earthquake Activity

City Distance Mag. Time & Date
Minimum magnitude displayed is 2.5.

Coastal Water Temperatures

Place Temperature

Stations

Nearby Weather Stations

Station Location Temp. Windchill Dew Point Humidity Wind Precip. Elev Updated Type